createdAt,value
2019-03-01T00:01:25.579Z,74.50
2019-03-01T00:04:00.731Z,74.70
2019-03-01T00:06:44.705Z,76.30
2019-03-01T00:09:28.807Z,76.00
2019-03-01T00:12:13.021Z,76.20
2019-03-01T00:14:50.781Z,77.00
2019-03-01T00:17:39.649Z,76.80
2019-03-01T00:20:35.904Z,78.30
2019-03-01T00:23:29.004Z,78.20
2019-03-01T00:26:19.002Z,78.80
2019-03-01T00:29:00.296Z,79.30
2019-03-01T00:31:48.889Z,79.30
2019-03-01T00:34:46.852Z,79.30
2019-03-01T00:37:31.112Z,79.10
2019-03-01T00:40:03.328Z,79.80
2019-03-01T00:42:47.494Z,79.50
2019-03-01T00:45:16.558Z,80.00
2019-03-01T00:47:45.627Z,80.00
2019-03-01T00:50:14.708Z,80.60
2019-03-01T00:52:43.828Z,81.00
2019-03-01T00:55:13.028Z,80.80
2019-03-01T00:57:42.096Z,80.50
2019-03-01T01:00:32.074Z,80.20
2019-03-01T01:03:01.206Z,80.60
2019-03-01T01:05:30.282Z,80.70
2019-03-01T01:07:59.428Z,80.80
2019-03-01T01:10:28.510Z,81.00
2019-03-01T01:12:57.579Z,81.50
2019-03-01T01:15:26.642Z,81.80
2019-03-01T01:17:55.708Z,82.30
2019-03-01T01:20:24.777Z,82.10
2019-03-01T01:22:53.837Z,82.30
2019-03-01T01:25:22.905Z,82.40
2019-03-01T01:27:52.035Z,82.30
2019-03-01T01:30:21.123Z,82.60
2019-03-01T01:32:50.184Z,82.70
2019-03-01T01:35:19.431Z,82.70
2019-03-01T01:37:48.580Z,82.60
2019-03-01T01:40:17.652Z,82.70
2019-03-01T01:42:46.707Z,82.80
2019-03-01T01:45:16.044Z,83.00
2019-03-01T01:47:45.175Z,83.00
2019-03-01T01:50:14.305Z,82.80
2019-03-01T01:52:43.362Z,82.80
2019-03-01T01:55:12.543Z,82.70
2019-03-01T01:57:41.631Z,82.60
2019-03-01T02:00:13.111Z,82.60
2019-03-01T02:02:42.302Z,82.50
2019-03-01T02:05:11.422Z,82.40
2019-03-01T02:07:40.473Z,82.20
2019-03-01T02:10:10.554Z,82.00
2019-03-01T02:12:39.601Z,81.80
2019-03-01T02:15:12.663Z,81.80
2019-03-01T02:17:41.900Z,81.60
2019-03-01T02:20:12.507Z,81.50
2019-03-01T02:22:41.587Z,81.50
2019-03-01T02:25:12.239Z,81.40
2019-03-01T02:27:41.324Z,81.40
2019-03-01T02:30:16.681Z,81.50
2019-03-01T02:32:46.178Z,81.30
2019-03-01T02:35:16.794Z,81.10
2019-03-01T02:37:45.852Z,81.10
2019-03-01T02:40:16.163Z,80.90
2019-03-01T02:42:45.230Z,80.80
2019-03-01T02:45:16.730Z,80.60
2019-03-01T02:47:45.908Z,80.50
2019-03-01T02:50:16.613Z,80.30
2019-03-01T02:52:45.744Z,80.30
2019-03-01T02:55:17.160Z,80.10
2019-03-01T02:57:46.281Z,80.00
2019-03-01T03:00:21.086Z,79.90
2019-03-01T03:02:50.282Z,79.80
2019-03-01T03:05:19.420Z,79.80
2019-03-01T03:07:50.108Z,79.60
2019-03-01T03:10:19.419Z,79.60
2019-03-01T03:12:50.339Z,79.50
2019-03-01T03:15:36.482Z,79.40
2019-03-01T03:18:05.681Z,79.30
2019-03-01T03:20:34.748Z,79.60
2019-03-01T03:23:04.081Z,79.60
2019-03-01T03:25:33.124Z,79.80
2019-03-01T03:28:02.259Z,79.70
2019-03-01T03:30:31.330Z,80.00
2019-03-01T03:33:00.385Z,79.80
2019-03-01T03:35:29.520Z,80.00
2019-03-01T03:37:58.583Z,80.00
2019-03-01T03:40:27.642Z,80.30
2019-03-01T03:42:56.697Z,80.60
2019-03-01T03:45:25.821Z,80.30
2019-03-01T03:47:54.908Z,80.50
2019-03-01T03:50:24.002Z,80.40
2019-03-01T03:52:53.110Z,80.50
2019-03-01T03:55:22.488Z,80.60
2019-03-01T03:57:51.602Z,80.80
2019-03-01T04:00:22.249Z,80.80
2019-03-01T04:02:51.315Z,80.90
2019-03-01T04:05:20.440Z,80.80
2019-03-01T04:07:49.912Z,81.20
2019-03-01T04:10:19.128Z,81.50
2019-03-01T04:12:48.248Z,81.50
2019-03-01T04:15:17.705Z,81.20
2019-03-01T04:17:46.970Z,81.50
2019-03-01T04:20:17.515Z,81.30
2019-03-01T04:22:46.758Z,81.60
2019-03-01T04:25:15.978Z,81.50
2019-03-01T04:27:45.103Z,81.60
2019-03-01T04:30:16.298Z,81.10
2019-03-01T04:32:45.478Z,81.50
2019-03-01T04:35:15.103Z,81.60
2019-03-01T04:37:44.332Z,81.90
2019-03-01T04:40:15.016Z,81.90
2019-03-01T04:42:44.088Z,82.40
2019-03-01T04:45:15.739Z,82.30
2019-03-01T04:47:44.888Z,82.10
2019-03-01T04:50:14.277Z,82.40
2019-03-01T04:52:43.427Z,82.20
2019-03-01T04:55:16.751Z,82.30
2019-03-01T04:57:45.812Z,82.40
2019-03-01T05:00:22.986Z,82.50
2019-03-01T05:02:52.108Z,82.70
2019-03-01T05:05:21.222Z,82.90
2019-03-01T05:07:50.548Z,82.70
2019-03-01T05:10:19.932Z,82.60
2019-03-01T05:12:48.996Z,82.70
2019-03-01T05:15:20.665Z,82.60
2019-03-01T05:17:49.741Z,82.70
2019-03-01T05:20:18.866Z,83.10
2019-03-01T05:22:47.999Z,83.40
2019-03-01T05:25:17.070Z,83.30
2019-03-01T05:27:46.143Z,83.70
2019-03-01T05:30:18.870Z,84.40
2019-03-01T05:32:48.072Z,83.50
2019-03-01T05:35:17.219Z,83.70
2019-03-01T05:37:46.302Z,83.40
2019-03-01T05:40:16.455Z,83.70
2019-03-01T05:42:45.524Z,83.60
2019-03-01T05:45:23.903Z,83.70
2019-03-01T05:47:52.997Z,83.90
2019-03-01T05:50:22.043Z,84.10
2019-03-01T05:52:51.113Z,84.20
2019-03-01T05:55:20.181Z,84.30
2019-03-01T05:58:21.114Z,84.40
2019-03-01T06:00:51.559Z,84.50
2019-03-01T06:03:48.034Z,84.70
2019-03-01T06:06:44.325Z,84.90
2019-03-01T06:09:33.970Z,85.00
2019-03-01T06:12:38.050Z,85.40
2019-03-01T06:15:37.431Z,85.40
2019-03-01T06:18:09.579Z,85.50
2019-03-01T06:20:47.357Z,85.50
2019-03-01T06:23:22.137Z,84.90
2019-03-01T06:25:54.286Z,85.40
2019-03-01T06:28:34.900Z,85.40
2019-03-01T06:31:22.150Z,85.40
2019-03-01T06:33:57.156Z,85.40
2019-03-01T06:36:44.341Z,85.80
2019-03-01T06:39:51.030Z,85.70
2019-03-01T06:42:34.749Z,85.70
2019-03-01T06:45:12.966Z,85.90
2019-03-01T06:47:44.653Z,86.20
2019-03-01T06:50:21.528Z,86.70
2019-03-01T06:52:50.670Z,87.20
2019-03-01T06:55:31.902Z,87.60
2019-03-01T06:58:00.948Z,87.50
2019-03-01T07:00:31.826Z,87.80
2019-03-01T07:03:01.352Z,87.90
2019-03-01T07:05:30.432Z,88.20
2019-03-01T07:07:59.534Z,88.40
2019-03-01T07:10:28.611Z,88.50
2019-03-01T07:12:57.661Z,89.00
2019-03-01T07:15:26.724Z,89.00
2019-03-01T07:17:55.778Z,89.00
2019-03-01T07:20:24.831Z,88.70
2019-03-01T07:22:53.936Z,88.70
2019-03-01T07:25:22.997Z,88.70
2019-03-01T07:27:52.111Z,89.00
2019-03-01T07:30:21.182Z,89.20
2019-03-01T07:32:50.234Z,89.10
2019-03-01T07:35:19.289Z,89.00
2019-03-01T07:37:48.351Z,88.60
2019-03-01T07:40:17.433Z,88.90
2019-03-01T07:42:46.831Z,88.70
2019-03-01T07:45:16.085Z,88.60
2019-03-01T07:47:45.224Z,88.30
2019-03-01T07:50:14.553Z,88.30
2019-03-01T07:52:43.629Z,88.80
2019-03-01T07:55:12.861Z,88.80
2019-03-01T07:57:41.937Z,89.00
2019-03-01T08:00:15.959Z,88.90
2019-03-01T08:02:45.894Z,89.20
2019-03-01T08:05:16.464Z,89.40
2019-03-01T08:07:55.409Z,89.10
2019-03-01T08:10:20.918Z,89.60
2019-03-01T08:12:47.877Z,89.40
2019-03-01T08:15:18.006Z,89.10
2019-03-01T08:17:47.214Z,88.80
2019-03-01T08:20:19.650Z,88.40
2019-03-01T08:22:49.683Z,88.30
2019-03-01T08:25:23.248Z,88.20
2019-03-01T08:27:50.571Z,88.10
2019-03-01T08:30:19.966Z,87.50
2019-03-01T08:32:49.027Z,87.80
2019-03-01T08:35:18.919Z,86.80
2019-03-01T08:37:49.849Z,86.70
2019-03-01T08:40:19.180Z,86.60
2019-03-01T08:42:48.312Z,86.80
2019-03-01T08:45:20.719Z,86.80
2019-03-01T08:47:49.795Z,86.90
2019-03-01T08:50:18.941Z,87.00
2019-03-01T08:52:48.009Z,87.10
2019-03-01T08:55:22.360Z,86.60
2019-03-01T08:57:51.541Z,86.00
2019-03-01T09:00:29.367Z,85.60
2019-03-01T09:03:01.607Z,85.10
2019-03-01T09:05:30.648Z,84.70
2019-03-01T09:07:59.753Z,84.10
2019-03-01T09:10:32.392Z,84.10
2019-03-01T09:12:59.610Z,83.80
2019-03-01T09:15:33.161Z,83.50
2019-03-01T09:18:02.288Z,83.00
2019-03-01T09:20:32.463Z,82.50
2019-03-01T09:23:04.920Z,81.70
2019-03-01T09:25:32.961Z,80.90
2019-03-01T09:28:02.079Z,80.60
2019-03-01T09:30:31.203Z,80.30
2019-03-01T09:33:00.570Z,80.50
2019-03-01T09:35:47.519Z,80.70
2019-03-01T09:38:16.612Z,80.50
2019-03-01T09:40:45.769Z,80.60
2019-03-01T09:43:14.861Z,80.70
2019-03-01T09:45:45.637Z,80.40
2019-03-01T09:48:14.885Z,79.90
2019-03-01T09:50:44.128Z,80.20
2019-03-01T09:53:13.203Z,80.00
2019-03-01T09:55:42.293Z,80.00
2019-03-01T09:58:11.437Z,80.50
2019-03-01T10:00:59.068Z,79.90
2019-03-01T10:03:28.146Z,80.10
2019-03-01T10:05:57.210Z,79.90
2019-03-01T10:08:26.367Z,79.70
2019-03-01T10:10:55.442Z,79.30
2019-03-01T10:13:24.511Z,78.70
2019-03-01T10:15:53.559Z,78.20
2019-03-01T10:18:22.639Z,77.40
2019-03-01T10:20:51.684Z,76.60
2019-03-01T10:23:20.767Z,76.80
2019-03-01T10:25:49.832Z,76.80
2019-03-01T10:28:18.960Z,76.50
2019-03-01T10:30:48.006Z,76.20
2019-03-01T10:33:17.068Z,76.10
2019-03-01T10:35:46.122Z,76.50
2019-03-01T10:38:15.195Z,76.90
2019-03-01T10:40:44.255Z,76.20
2019-03-01T10:43:13.390Z,76.70
2019-03-01T10:45:42.808Z,76.30
2019-03-01T10:48:11.884Z,74.80
2019-03-01T10:50:40.944Z,75.00
2019-03-01T10:53:10.010Z,74.90
2019-03-01T10:55:39.099Z,73.90
2019-03-01T10:58:08.187Z,74.20
2019-03-01T11:00:37.560Z,74.90
2019-03-01T11:03:06.640Z,74.50
2019-03-01T11:05:35.697Z,74.00
2019-03-01T11:08:04.849Z,73.70
2019-03-01T11:10:38.789Z,73.60
2019-03-01T11:13:18.154Z,72.00
2019-03-01T11:15:47.270Z,73.50
2019-03-01T11:18:16.342Z,74.50
2019-03-01T11:20:45.384Z,74.10
2019-03-01T11:23:14.452Z,75.00
2019-03-01T11:25:43.527Z,74.00
2019-03-01T11:28:12.587Z,73.10
2019-03-01T11:30:41.631Z,73.00
2019-03-01T11:33:10.700Z,72.80
2019-03-01T11:35:40.347Z,73.30
2019-03-01T11:38:09.421Z,73.00
2019-03-01T11:40:41.300Z,73.20
2019-03-01T11:43:10.420Z,73.40
2019-03-01T11:45:39.545Z,74.40
2019-03-01T11:48:08.781Z,76.60
2019-03-01T11:50:37.908Z,78.80
2019-03-01T11:53:07.057Z,80.30
2019-03-01T11:55:36.119Z,81.10
2019-03-01T11:58:05.182Z,81.60
2019-03-01T12:00:34.385Z,81.50
2019-03-01T12:03:03.615Z,81.10
2019-03-01T12:05:32.736Z,80.40
2019-03-01T12:08:01.795Z,80.10
2019-03-01T12:10:31.594Z,80.50
2019-03-01T12:13:00.793Z,81.00
2019-03-01T12:15:29.935Z,81.00
2019-03-01T12:17:59.018Z,81.30
2019-03-01T12:20:32.290Z,80.80
2019-03-01T12:23:01.412Z,80.70
2019-03-01T12:25:31.042Z,80.10
2019-03-01T12:28:00.112Z,79.40
2019-03-01T12:30:29.234Z,79.70
2019-03-01T12:32:58.287Z,79.20
2019-03-01T12:35:27.354Z,78.90
2019-03-01T12:37:56.385Z,78.50
2019-03-01T12:40:27.007Z,78.60
2019-03-01T12:42:56.063Z,78.40
2019-03-01T12:45:25.134Z,78.20
2019-03-01T12:47:54.209Z,77.60
2019-03-01T12:50:23.497Z,78.60
2019-03-01T12:52:52.659Z,77.50
2019-03-01T12:55:29.665Z,77.90
2019-03-01T12:57:58.711Z,79.00
2019-03-01T13:00:32.465Z,78.80
2019-03-01T13:03:05.072Z,79.80
2019-03-01T13:05:32.380Z,80.70
2019-03-01T13:08:01.448Z,81.90
2019-03-01T13:10:36.779Z,83.60
2019-03-01T13:13:08.408Z,85.70
2019-03-01T13:15:37.359Z,85.40
2019-03-01T13:18:10.221Z,86.10
2019-03-01T13:20:38.183Z,85.00
2019-03-01T13:23:07.360Z,85.80
2019-03-01T13:25:36.426Z,85.70
2019-03-01T13:28:05.496Z,86.80
2019-03-01T13:30:35.807Z,87.10
2019-03-01T13:33:05.355Z,87.70
2019-03-01T13:35:34.439Z,88.50
2019-03-01T13:38:03.983Z,89.10
2019-03-01T13:40:33.245Z,90.00
2019-03-01T13:43:02.388Z,90.40
2019-03-01T13:45:31.459Z,90.50
2019-03-01T13:48:00.499Z,90.60
2019-03-01T13:50:29.557Z,90.60
2019-03-01T13:52:58.641Z,90.80
2019-03-01T13:55:27.779Z,91.20
2019-03-01T13:57:56.847Z,91.00
2019-03-01T14:00:25.987Z,91.60
2019-03-01T14:02:55.039Z,92.00
2019-03-01T14:05:24.127Z,91.80
2019-03-01T14:07:56.643Z,92.30
2019-03-01T14:10:28.587Z,92.20
2019-03-01T14:12:57.661Z,92.40
2019-03-01T14:15:26.711Z,92.50
2019-03-01T14:18:00.818Z,92.70
2019-03-01T14:20:26.547Z,92.90
2019-03-01T14:22:55.625Z,93.10
2019-03-01T14:25:24.722Z,93.10
2019-03-01T14:27:53.905Z,93.10
2019-03-01T14:30:29.460Z,92.90
2019-03-01T14:32:57.763Z,92.70
2019-03-01T14:35:27.130Z,92.70
2019-03-01T14:37:56.468Z,92.50
2019-03-01T14:40:25.550Z,92.30
2019-03-01T14:42:54.616Z,91.80
2019-03-01T14:45:34.312Z,91.40
2019-03-01T14:48:05.167Z,91.50
2019-03-01T14:50:34.763Z,91.50
2019-03-01T14:53:03.931Z,91.40
2019-03-01T14:55:35.978Z,91.50
2019-03-01T14:58:08.162Z,91.50
2019-03-01T15:00:49.590Z,91.50
2019-03-01T15:03:34.863Z,91.60
2019-03-01T15:06:04.694Z,91.60
2019-03-01T15:08:33.861Z,91.70
2019-03-01T15:11:11.352Z,91.80
2019-03-01T15:13:40.488Z,91.90
2019-03-01T15:16:09.613Z,91.70
2019-03-01T15:18:40.420Z,91.80
2019-03-01T15:21:10.614Z,91.80
2019-03-01T15:23:39.678Z,91.70
2019-03-01T15:26:08.759Z,91.80
2019-03-01T15:28:53.653Z,91.90
2019-03-01T15:31:20.215Z,91.90
2019-03-01T15:33:49.268Z,91.80
2019-03-01T15:36:19.131Z,91.80
2019-03-01T15:38:48.440Z,91.90
2019-03-01T15:41:17.661Z,91.90
2019-03-01T15:43:46.849Z,92.00
2019-03-01T15:46:17.869Z,91.80
2019-03-01T15:48:46.693Z,91.90
2019-03-01T15:51:15.751Z,92.00
2019-03-01T15:53:44.822Z,91.70
2019-03-01T15:56:14.245Z,91.60
2019-03-01T15:58:43.280Z,91.80
2019-03-01T16:01:12.355Z,91.80
2019-03-01T16:03:41.600Z,91.70
2019-03-01T16:06:13.928Z,91.30
2019-03-01T16:08:43.951Z,91.50
2019-03-01T16:11:12.694Z,91.50
2019-03-01T16:13:47.776Z,91.50
2019-03-01T16:16:14.463Z,91.40
2019-03-01T16:18:43.749Z,91.10
2019-03-01T16:21:12.869Z,91.00
2019-03-01T16:23:41.944Z,91.20
2019-03-01T16:26:11.280Z,91.20
2019-03-01T16:28:40.331Z,91.20
2019-03-01T16:31:09.420Z,91.20
2019-03-01T16:33:38.535Z,91.40
2019-03-01T16:36:09.254Z,91.70
2019-03-01T16:38:41.191Z,91.90
2019-03-01T16:41:09.081Z,92.00
2019-03-01T16:43:38.117Z,92.30
2019-03-01T16:46:07.201Z,92.50
2019-03-01T16:48:36.239Z,92.60
2019-03-01T16:51:05.287Z,92.90
2019-03-01T16:53:36.742Z,93.20
2019-03-01T16:56:04.606Z,93.30
2019-03-01T16:58:33.657Z,93.50
2019-03-01T17:01:02.794Z,93.40
2019-03-01T17:03:31.258Z,93.60
2019-03-01T17:06:00.301Z,93.80
2019-03-01T17:08:29.366Z,93.80
2019-03-01T17:10:57.854Z,93.90
2019-03-01T17:13:26.925Z,94.20
2019-03-01T17:15:57.164Z,93.90
2019-03-01T17:18:26.352Z,93.80
2019-03-01T17:20:54.824Z,94.00
2019-03-01T17:23:23.300Z,93.70
2019-03-01T17:25:51.801Z,93.60
2019-03-01T17:28:23.549Z,93.80
2019-03-01T17:30:51.653Z,94.00
2019-03-01T17:33:20.354Z,93.80
2019-03-01T17:35:48.827Z,93.80
2019-03-01T17:38:17.307Z,94.00
2019-03-01T17:40:45.765Z,94.00
2019-03-01T17:43:14.285Z,94.10
2019-03-01T17:45:42.840Z,94.10
2019-03-01T17:48:11.300Z,94.00
2019-03-01T17:50:41.675Z,93.70
2019-03-01T17:53:10.494Z,93.70
2019-03-01T17:55:39.056Z,93.70
2019-03-01T17:58:08.988Z,93.40
2019-03-01T18:00:41.696Z,93.20
2019-03-01T18:03:10.164Z,93.00
2019-03-01T18:05:41.441Z,93.00
2019-03-01T18:08:10.134Z,93.00
2019-03-01T18:10:38.641Z,92.80
2019-03-01T18:13:07.186Z,92.70
2019-03-01T18:15:35.721Z,92.40
2019-03-01T18:18:04.305Z,92.40
2019-03-01T18:20:34.029Z,91.90
2019-03-01T18:23:03.318Z,91.70
2019-03-01T18:25:31.831Z,91.70
2019-03-01T18:28:00.376Z,91.80
2019-03-01T18:30:34.466Z,91.30
2019-03-01T18:33:02.947Z,91.30
2019-03-01T18:35:31.437Z,90.90
2019-03-01T18:37:59.969Z,90.70
2019-03-01T18:40:28.455Z,90.70
2019-03-01T18:42:56.935Z,90.90
2019-03-01T18:45:27.321Z,90.80
2019-03-01T18:47:55.852Z,90.50
2019-03-01T18:50:31.174Z,90.30
2019-03-01T18:53:03.453Z,90.10
2019-03-01T18:55:31.586Z,89.80
2019-03-01T18:58:00.217Z,89.90
2019-03-01T19:00:41.432Z,90.00
2019-03-01T19:03:09.989Z,90.00
2019-03-01T19:05:40.319Z,89.80
2019-03-01T19:08:08.676Z,90.00
2019-03-01T19:10:37.256Z,90.00
2019-03-01T19:13:05.968Z,90.00
2019-03-01T19:15:34.458Z,89.80
2019-03-01T19:18:03.400Z,89.80
2019-03-01T19:20:37.886Z,88.70
2019-03-01T19:23:05.337Z,88.30
2019-03-01T19:25:33.887Z,88.20
2019-03-01T19:28:02.348Z,88.10
2019-03-01T19:30:30.830Z,88.50
2019-03-01T19:33:02.208Z,88.30
2019-03-01T19:35:30.027Z,85.20
2019-03-01T19:37:58.742Z,85.30
2019-03-01T19:40:27.413Z,86.00
2019-03-01T19:42:57.375Z,84.80
2019-03-01T19:45:26.425Z,84.70
2019-03-01T19:48:01.298Z,85.00
2019-03-01T19:50:27.418Z,84.80
2019-03-01T19:52:55.949Z,84.90
2019-03-01T19:55:24.589Z,85.00
2019-03-01T19:57:53.241Z,85.20
2019-03-01T20:00:27.000Z,84.20
2019-03-01T20:02:55.786Z,83.50
2019-03-01T20:05:35.304Z,83.70
2019-03-01T20:08:03.974Z,84.10
2019-03-01T20:10:32.570Z,84.00
2019-03-01T20:13:01.049Z,83.80
2019-03-01T20:15:30.666Z,83.50
2019-03-01T20:17:59.345Z,83.60
2019-03-01T20:20:33.501Z,83.30
2019-03-01T20:23:01.193Z,83.60
2019-03-01T20:25:29.661Z,82.60
2019-03-01T20:27:58.151Z,83.10
2019-03-01T20:30:33.441Z,83.30
2019-03-01T20:33:02.099Z,81.90
2019-03-01T20:35:30.565Z,82.50
2019-03-01T20:38:00.113Z,81.00
2019-03-01T20:40:29.277Z,81.50
2019-03-01T20:43:01.276Z,81.20
2019-03-01T20:45:31.270Z,80.90
2019-03-01T20:48:00.094Z,81.00
2019-03-01T20:50:28.625Z,81.60
2019-03-01T20:52:57.171Z,81.70
2019-03-01T20:55:25.642Z,81.40
2019-03-01T20:57:54.127Z,81.20
2019-03-01T21:00:26.160Z,81.40
2019-03-01T21:02:56.086Z,81.20
2019-03-01T21:05:25.018Z,81.10
2019-03-01T21:07:54.899Z,81.20
2019-03-01T21:10:28.097Z,81.50
2019-03-01T21:12:56.564Z,82.40
2019-03-01T21:15:25.191Z,81.60
2019-03-01T21:17:56.996Z,81.60
2019-03-01T21:20:23.935Z,81.50
2019-03-01T21:22:52.424Z,81.50
2019-03-01T21:25:22.212Z,81.50
2019-03-01T21:27:50.735Z,81.00
2019-03-01T21:30:24.092Z,81.10
2019-03-01T21:32:52.745Z,80.40
2019-03-01T21:35:21.221Z,79.90
2019-03-01T21:37:49.772Z,78.70
2019-03-01T21:40:18.415Z,79.50
2019-03-01T21:42:46.969Z,79.60
2019-03-01T21:45:21.193Z,79.50
2019-03-01T21:47:48.909Z,79.60
2019-03-01T21:50:17.741Z,80.10
2019-03-01T21:52:46.224Z,80.30
2019-03-01T21:55:16.694Z,80.50
2019-03-01T21:57:45.238Z,80.70
2019-03-01T22:00:16.913Z,80.50
2019-03-01T22:02:48.840Z,80.50
2019-03-01T22:05:15.573Z,80.00
2019-03-01T22:07:44.057Z,80.40
2019-03-01T22:10:14.729Z,80.40
2019-03-01T22:12:43.381Z,80.20
2019-03-01T22:15:14.581Z,81.00
2019-03-01T22:17:45.474Z,80.60
2019-03-01T22:20:13.329Z,80.50
2019-03-01T22:22:41.801Z,80.30
2019-03-01T22:25:13.076Z,79.40
2019-03-01T22:27:42.497Z,79.90
2019-03-01T22:30:22.859Z,80.20
2019-03-01T22:32:49.853Z,80.20
2019-03-01T22:35:18.305Z,80.90
2019-03-01T22:37:47.112Z,80.00
2019-03-01T22:40:15.719Z,80.00
2019-03-01T22:42:45.863Z,79.80
2019-03-01T22:45:16.039Z,79.70
2019-03-01T22:47:44.511Z,79.60
2019-03-01T22:50:15.326Z,78.80
2019-03-01T22:52:44.042Z,78.50
2019-03-01T22:55:16.313Z,78.90
2019-03-01T22:57:45.141Z,78.80
2019-03-01T23:00:39.574Z,79.00
2019-03-01T23:03:08.118Z,78.90
2019-03-01T23:05:39.207Z,78.90
2019-03-01T23:08:07.549Z,78.80
2019-03-01T23:10:36.072Z,78.80
2019-03-01T23:13:04.554Z,78.60
2019-03-01T23:15:33.028Z,78.60
2019-03-01T23:18:01.833Z,78.60
2019-03-01T23:20:30.452Z,78.70
2019-03-01T23:22:58.923Z,78.60
2019-03-01T23:25:27.387Z,78.70
2019-03-01T23:27:55.889Z,78.80
2019-03-01T23:30:25.708Z,78.60
2019-03-01T23:32:55.883Z,78.50
2019-03-01T23:35:24.564Z,78.60
2019-03-01T23:37:53.048Z,78.60
2019-03-01T23:40:21.516Z,78.80
2019-03-01T23:42:49.974Z,78.80
2019-03-01T23:45:18.594Z,78.80
2019-03-01T23:47:47.290Z,78.90
2019-03-01T23:50:15.772Z,78.90
2019-03-01T23:52:44.252Z,78.90
2019-03-01T23:55:15.583Z,78.80
2019-03-01T23:57:42.986Z,78.90
